createdAt,value
2023-05-06T00:01:25.771Z,39.60
2023-05-06T00:03:58.006Z,38.50
2023-05-06T00:06:30.422Z,40.81
2023-05-06T00:09:02.664Z,43.03
2023-05-06T00:11:34.927Z,44.87
2023-05-06T00:14:09.750Z,43.89
2023-05-06T00:16:42.127Z,45.05
2023-05-06T00:19:14.350Z,47.00
2023-05-06T00:21:46.482Z,44.64
2023-05-06T00:24:18.680Z,47.74
2023-05-06T00:26:51.010Z,55.33
2023-05-06T00:29:25.996Z,55.03
2023-05-06T00:31:58.195Z,61.98
2023-05-06T00:34:30.444Z,64.76
2023-05-06T00:37:02.764Z,62.45
2023-05-06T00:39:35.176Z,66.46
2023-05-06T00:42:07.548Z,65.78
2023-05-06T00:44:42.347Z,64.92
2023-05-06T00:47:14.655Z,64.71
2023-05-06T00:49:47.331Z,73.39
2023-05-06T00:52:21.443Z,69.73
2023-05-06T00:54:54.263Z,73.06
2023-05-06T00:57:26.779Z,66.39
2023-05-06T01:00:01.725Z,67.42
2023-05-06T01:02:46.573Z,68.00
2023-05-06T01:05:22.457Z,68.70
2023-05-06T01:08:04.474Z,68.46
2023-05-06T01:10:42.806Z,75.59
2023-05-06T01:13:25.103Z,75.61
2023-05-06T01:16:03.218Z,78.16
2023-05-06T01:18:36.995Z,77.41
2023-05-06T01:21:10.430Z,70.85
2023-05-06T01:24:00.192Z,76.27
2023-05-06T01:26:32.534Z,75.58
2023-05-06T01:29:05.307Z,75.65
2023-05-06T01:31:47.579Z,75.75
2023-05-06T01:34:31.488Z,68.43
2023-05-06T01:37:14.891Z,70.46
2023-05-06T01:39:51.897Z,73.26
2023-05-06T01:42:28.369Z,74.45
2023-05-06T01:45:04.044Z,71.14
2023-05-06T01:47:37.333Z,75.06
2023-05-06T01:50:10.658Z,74.07
2023-05-06T01:52:43.187Z,67.75
2023-05-06T01:55:18.253Z,69.39
2023-05-06T01:57:50.513Z,63.99
2023-05-06T02:00:24.907Z,54.86
2023-05-06T02:02:57.170Z,54.16
2023-05-06T02:05:29.750Z,50.17
2023-05-06T02:08:01.968Z,45.90
2023-05-06T02:10:36.756Z,50.85
2023-05-06T02:13:09.079Z,50.01
2023-05-06T02:15:41.559Z,48.34
2023-05-06T02:18:14.104Z,50.56
2023-05-06T02:20:46.224Z,50.37
2023-05-06T02:23:18.397Z,56.72
2023-05-06T02:25:53.429Z,59.06
2023-05-06T02:28:25.564Z,56.00
2023-05-06T02:31:02.951Z,56.26
2023-05-06T02:33:35.180Z,54.96
2023-05-06T02:36:07.759Z,54.90
2023-05-06T02:38:39.954Z,53.41
2023-05-06T02:41:14.712Z,55.96
2023-05-06T02:43:46.876Z,53.89
2023-05-06T02:46:19.137Z,54.06
2023-05-06T02:48:51.379Z,54.14
2023-05-06T02:51:23.529Z,55.14
2023-05-06T02:53:55.787Z,57.84
2023-05-06T02:56:31.400Z,54.41
2023-05-06T02:59:03.621Z,56.56
2023-05-06T03:01:35.939Z,55.69
2023-05-06T03:04:08.273Z,50.96
2023-05-06T03:06:40.848Z,48.90
2023-05-06T03:09:13.062Z,45.89
2023-05-06T03:11:47.897Z,48.64
2023-05-06T03:14:20.145Z,48.81
2023-05-06T03:16:52.639Z,52.11
2023-05-06T03:19:25.036Z,52.06
2023-05-06T03:21:57.872Z,50.99
2023-05-06T03:24:30.779Z,51.54
2023-05-06T03:27:05.575Z,50.76
2023-05-06T03:29:37.743Z,52.95
2023-05-06T03:32:10.726Z,58.04
2023-05-06T03:34:42.987Z,63.70
2023-05-06T03:37:15.320Z,72.42
2023-05-06T03:39:47.616Z,78.87
2023-05-06T03:42:22.452Z,75.41
2023-05-06T03:44:54.668Z,75.31
2023-05-06T03:47:26.911Z,73.67
2023-05-06T03:49:59.100Z,73.38
2023-05-06T03:52:31.487Z,69.46
2023-05-06T03:55:03.856Z,74.34
2023-05-06T03:57:38.860Z,71.26
2023-05-06T04:00:12.479Z,73.42
2023-05-06T04:02:44.817Z,70.19
2023-05-06T04:05:17.298Z,67.27
2023-05-06T04:07:49.463Z,68.98
2023-05-06T04:10:21.878Z,73.08
2023-05-06T04:12:56.703Z,70.95
2023-05-06T04:15:32.131Z,70.57
2023-05-06T04:18:04.386Z,72.59
2023-05-06T04:20:36.665Z,73.45
2023-05-06T04:23:08.868Z,75.47
2023-05-06T04:25:42.776Z,77.48
2023-05-06T04:28:18.733Z,73.12
2023-05-06T04:30:51.809Z,75.61
2023-05-06T04:33:26.373Z,75.83
2023-05-06T04:35:59.368Z,85.32
2023-05-06T04:38:32.398Z,88.21
2023-05-06T04:41:05.200Z,88.57
2023-05-06T04:43:39.977Z,86.64
2023-05-06T04:46:12.510Z,86.08
2023-05-06T04:48:45.235Z,86.09
2023-05-06T04:51:17.452Z,85.92
2023-05-06T04:53:49.686Z,88.04
2023-05-06T04:56:22.792Z,86.49
2023-05-06T04:58:57.692Z,88.54
2023-05-06T05:01:30.011Z,91.91
2023-05-06T05:04:02.283Z,94.66
2023-05-06T05:06:34.803Z,92.41
2023-05-06T05:09:07.214Z,90.29
2023-05-06T05:11:41.931Z,89.46
2023-05-06T05:14:16.732Z,91.27
2023-05-06T05:16:49.149Z,88.57
2023-05-06T05:19:21.449Z,90.90
2023-05-06T05:21:53.802Z,90.63
2023-05-06T05:24:26.194Z,90.88
2023-05-06T05:26:58.664Z,96.69
2023-05-06T05:29:33.498Z,98.71
2023-05-06T05:32:05.680Z,96.78
2023-05-06T05:34:38.075Z,98.03
2023-05-06T05:37:11.538Z,102.23
2023-05-06T05:39:43.798Z,102.67
2023-05-06T05:42:16.240Z,102.86
2023-05-06T05:44:51.047Z,102.46
2023-05-06T05:47:23.375Z,101.89
2023-05-06T05:49:57.164Z,108.54
2023-05-06T05:52:29.467Z,128.57
2023-05-06T05:55:02.834Z,121.28
2023-05-06T05:57:35.063Z,120.51
2023-05-06T06:00:13.473Z,127.70
2023-05-06T06:02:46.217Z,129.01
2023-05-06T06:05:18.774Z,144.52
2023-05-06T06:07:52.159Z,144.33
2023-05-06T06:10:24.626Z,142.13
2023-05-06T06:12:56.943Z,138.07
2023-05-06T06:15:32.640Z,141.50
2023-05-06T06:18:05.501Z,142.33
2023-05-06T06:20:37.946Z,146.16
2023-05-06T06:23:10.286Z,153.30
2023-05-06T06:25:42.670Z,152.35
2023-05-06T06:28:14.928Z,146.88
2023-05-06T06:30:49.840Z,138.45
2023-05-06T06:33:22.173Z,137.85
2023-05-06T06:35:54.931Z,137.54
2023-05-06T06:38:27.157Z,137.15
2023-05-06T06:40:59.383Z,136.01
2023-05-06T06:43:31.593Z,137.26
2023-05-06T06:46:06.604Z,147.71
2023-05-06T06:48:38.837Z,154.06
2023-05-06T06:51:11.207Z,183.54
2023-05-06T06:53:43.456Z,245.27
2023-05-06T06:56:16.430Z,200.77
2023-05-06T06:58:48.991Z,183.73
2023-05-06T07:01:24.417Z,162.69
2023-05-06T07:03:56.735Z,153.79
2023-05-06T07:06:29.191Z,161.80
2023-05-06T07:09:01.427Z,157.01
2023-05-06T07:11:33.783Z,152.88
2023-05-06T07:14:05.967Z,152.12
2023-05-06T07:16:41.862Z,151.79
2023-05-06T07:19:14.768Z,148.06
2023-05-06T07:21:47.018Z,154.00
2023-05-06T07:24:19.324Z,152.37
2023-05-06T07:26:52.264Z,150.30
2023-05-06T07:29:24.480Z,152.01
2023-05-06T07:31:59.383Z,154.71
2023-05-06T07:34:31.649Z,150.26
2023-05-06T07:37:04.711Z,150.51
2023-05-06T07:39:36.960Z,155.84
2023-05-06T07:42:13.200Z,160.20
2023-05-06T07:44:45.487Z,157.06
2023-05-06T07:47:29.954Z,162.82
2023-05-06T07:50:02.980Z,161.26
2023-05-06T07:52:35.750Z,162.88
2023-05-06T07:55:09.908Z,159.32
2023-05-06T07:57:42.589Z,159.26
2023-05-06T08:00:15.972Z,155.41
2023-05-06T08:02:50.908Z,163.66
2023-05-06T08:05:23.546Z,160.11
2023-05-06T08:07:55.924Z,158.69
2023-05-06T08:10:28.392Z,160.44
2023-05-06T08:13:00.630Z,161.68
2023-05-06T08:15:33.300Z,156.55
2023-05-06T08:18:20.897Z,153.08
2023-05-06T08:20:54.322Z,148.14
2023-05-06T08:23:26.641Z,154.89
2023-05-06T08:25:59.272Z,151.72
2023-05-06T08:28:32.126Z,157.15
2023-05-06T08:31:04.362Z,155.84
2023-05-06T08:33:39.196Z,161.20
2023-05-06T08:36:12.288Z,164.32
2023-05-06T08:38:49.153Z,162.56
2023-05-06T08:41:24.119Z,160.27
2023-05-06T08:44:01.337Z,157.14
2023-05-06T08:46:33.850Z,157.92
2023-05-06T08:49:08.748Z,154.02
2023-05-06T08:51:43.602Z,154.61
2023-05-06T08:54:17.115Z,156.43
2023-05-06T08:56:56.471Z,154.59
2023-05-06T08:59:33.082Z,150.88
2023-05-06T09:02:05.576Z,157.12
2023-05-06T09:04:41.729Z,154.56
2023-05-06T09:07:13.929Z,164.04
2023-05-06T09:09:46.165Z,180.99
2023-05-06T09:12:18.746Z,195.25
2023-05-06T09:14:56.109Z,209.36
2023-05-06T09:17:28.661Z,248.96
2023-05-06T09:20:04.056Z,229.01
2023-05-06T09:22:37.052Z,207.75
2023-05-06T09:25:12.199Z,195.86
2023-05-06T09:27:44.914Z,175.39
2023-05-06T09:30:18.290Z,154.11
2023-05-06T09:32:51.733Z,144.65
2023-05-06T09:35:31.858Z,136.30
2023-05-06T09:38:06.494Z,132.29
2023-05-06T09:40:40.063Z,140.35
2023-05-06T09:43:12.766Z,143.51
2023-05-06T09:45:46.507Z,154.83
2023-05-06T09:48:19.714Z,159.12
2023-05-06T09:50:54.867Z,154.43
2023-05-06T09:53:29.114Z,149.26
2023-05-06T09:56:01.777Z,151.27
2023-05-06T09:58:36.323Z,151.67
2023-05-06T10:01:12.070Z,153.80
2023-05-06T10:03:46.463Z,147.39
2023-05-06T10:06:23.241Z,147.83
2023-05-06T10:08:56.624Z,149.35
2023-05-06T10:11:30.180Z,149.61
2023-05-06T10:14:05.302Z,144.31
2023-05-06T10:16:40.335Z,128.75
2023-05-06T10:19:13.347Z,113.11
2023-05-06T10:21:58.112Z,114.44
2023-05-06T10:24:37.592Z,117.48
2023-05-06T10:27:11.132Z,125.89
2023-05-06T10:29:43.787Z,130.06
2023-05-06T10:32:16.517Z,124.03
2023-05-06T10:34:58.312Z,114.51
2023-05-06T10:37:37.235Z,113.75
2023-05-06T10:40:12.780Z,111.29
2023-05-06T10:42:45.276Z,94.06
2023-05-06T10:45:18.200Z,76.83
2023-05-06T10:48:12.868Z,77.28
2023-05-06T10:50:46.887Z,77.09
2023-05-06T10:53:21.752Z,79.94
2023-05-06T10:56:11.924Z,80.23
2023-05-06T10:58:44.114Z,75.07
2023-05-06T11:01:19.102Z,68.46
2023-05-06T11:03:51.499Z,64.36
2023-05-06T11:06:39.613Z,62.61
2023-05-06T11:09:21.922Z,59.27
2023-05-06T11:11:57.402Z,55.61
2023-05-06T11:14:35.602Z,51.46
2023-05-06T11:17:09.857Z,62.60
2023-05-06T11:19:43.608Z,63.44
2023-05-06T11:22:42.672Z,62.42
2023-05-06T11:25:17.920Z,65.51
2023-05-06T11:27:50.934Z,69.99
2023-05-06T11:30:23.253Z,68.57
2023-05-06T11:33:05.391Z,68.01
2023-05-06T11:35:41.810Z,65.45
2023-05-06T11:38:14.067Z,58.01
2023-05-06T11:40:48.857Z,66.74
2023-05-06T11:43:21.964Z,67.79
2023-05-06T11:45:54.427Z,68.34
2023-05-06T11:48:26.690Z,83.04
2023-05-06T11:50:59.545Z,92.42
2023-05-06T11:53:33.728Z,71.18
2023-05-06T11:56:11.122Z,55.93
2023-05-06T11:58:43.279Z,48.81
2023-05-06T12:01:15.498Z,55.23
2023-05-06T12:03:47.891Z,68.77
2023-05-06T12:06:24.097Z,72.70
2023-05-06T12:08:57.048Z,70.44
2023-05-06T12:11:32.388Z,71.04
2023-05-06T12:14:05.795Z,74.31
2023-05-06T12:16:39.366Z,70.60
2023-05-06T12:19:11.814Z,62.08
2023-05-06T12:21:44.140Z,56.40
2023-05-06T12:24:16.806Z,55.16
2023-05-06T12:26:53.336Z,58.74
2023-05-06T12:29:25.897Z,49.65
2023-05-06T12:32:12.739Z,53.65
2023-05-06T12:34:46.045Z,56.23
2023-05-06T12:37:32.005Z,59.91
2023-05-06T12:40:04.335Z,73.48
2023-05-06T12:42:39.441Z,89.19
2023-05-06T12:45:18.673Z,100.46
2023-05-06T12:47:57.860Z,97.90
2023-05-06T12:50:38.135Z,103.70
2023-05-06T12:53:13.462Z,98.34
2023-05-06T12:55:46.743Z,105.34
2023-05-06T12:58:24.873Z,104.36
2023-05-06T13:00:57.266Z,106.31
2023-05-06T13:03:38.221Z,107.46
2023-05-06T13:06:11.339Z,95.75
2023-05-06T13:08:43.963Z,100.74
2023-05-06T13:11:16.241Z,99.16
2023-05-06T13:13:51.258Z,93.94
2023-05-06T13:16:23.918Z,97.12
2023-05-06T13:18:56.202Z,90.88
2023-05-06T13:21:28.661Z,97.74
2023-05-06T13:24:00.908Z,87.66
2023-05-06T13:26:33.206Z,82.66
2023-05-06T13:29:08.055Z,82.69
2023-05-06T13:31:40.383Z,87.64
2023-05-06T13:34:12.963Z,84.34
2023-05-06T13:36:45.374Z,79.66
2023-05-06T13:39:17.551Z,79.63
2023-05-06T13:41:51.227Z,72.33
2023-05-06T13:44:26.502Z,65.77
2023-05-06T13:46:59.066Z,57.26
2023-05-06T13:49:31.307Z,46.54
2023-05-06T13:52:04.758Z,47.16
2023-05-06T13:54:38.774Z,55.46
2023-05-06T13:57:10.958Z,59.14
2023-05-06T13:59:45.867Z,41.39
2023-05-06T14:02:18.659Z,36.23
2023-05-06T14:05:03.307Z,32.60
2023-05-06T14:07:35.586Z,30.66
2023-05-06T14:10:08.288Z,31.85
2023-05-06T14:12:40.815Z,28.39
2023-05-06T14:15:17.182Z,29.96
2023-05-06T14:17:49.395Z,30.03
2023-05-06T14:20:21.624Z,27.04
2023-05-06T14:22:53.867Z,27.96
2023-05-06T14:25:28.159Z,25.78
2023-05-06T14:28:00.441Z,23.15
2023-05-06T14:30:35.878Z,22.10
2023-05-06T14:33:08.414Z,20.98
2023-05-06T14:35:46.155Z,20.74
2023-05-06T14:38:18.405Z,22.09
2023-05-06T14:40:50.594Z,21.04
2023-05-06T14:43:23.898Z,22.01
2023-05-06T14:45:58.963Z,22.34
2023-05-06T14:48:32.191Z,23.52
2023-05-06T14:51:05.462Z,21.69
2023-05-06T14:53:37.627Z,21.81
2023-05-06T14:56:13.492Z,22.59
2023-05-06T14:58:45.704Z,24.17
2023-05-06T15:01:20.523Z,23.01
2023-05-06T15:03:53.552Z,24.50
2023-05-06T15:06:26.056Z,24.17
2023-05-06T15:08:58.280Z,25.65
2023-05-06T15:11:30.572Z,25.99
2023-05-06T15:14:02.788Z,26.46
2023-05-06T15:16:37.690Z,25.21
2023-05-06T15:19:10.202Z,22.96
2023-05-06T15:21:42.522Z,25.27
2023-05-06T15:24:14.866Z,28.15
2023-05-06T15:26:47.093Z,29.76
2023-05-06T15:29:20.584Z,30.57
2023-05-06T15:31:57.979Z,30.15
2023-05-06T15:34:30.217Z,27.19
2023-05-06T15:37:03.516Z,27.43
2023-05-06T15:39:40.472Z,25.89
2023-05-06T15:42:13.748Z,27.01
2023-05-06T15:44:46.067Z,25.49
2023-05-06T15:47:20.833Z,22.84
2023-05-06T15:49:57.234Z,23.26
2023-05-06T15:52:29.433Z,21.83
2023-05-06T15:55:02.361Z,22.82
2023-05-06T15:57:34.707Z,24.04
2023-05-06T16:00:08.365Z,25.36
2023-05-06T16:02:43.368Z,28.19
2023-05-06T16:05:15.984Z,28.44
2023-05-06T16:07:48.292Z,29.01
2023-05-06T16:10:20.898Z,27.72
2023-05-06T16:12:53.129Z,26.59
2023-05-06T16:15:25.706Z,26.76
2023-05-06T16:18:00.599Z,28.05
2023-05-06T16:20:33.059Z,28.96
2023-05-06T16:23:05.642Z,27.52
2023-05-06T16:25:38.398Z,27.93
2023-05-06T16:28:11.627Z,22.97
2023-05-06T16:30:45.073Z,22.86
2023-05-06T16:33:29.614Z,26.55
2023-05-06T16:36:05.893Z,25.20
2023-05-06T16:38:38.167Z,26.77
2023-05-06T16:41:13.261Z,27.06
2023-05-06T16:43:49.744Z,27.71
2023-05-06T16:46:25.042Z,25.68
2023-05-06T16:49:01.213Z,25.66
2023-05-06T16:51:33.918Z,27.19
2023-05-06T16:54:06.327Z,26.89
2023-05-06T16:56:50.772Z,28.87
2023-05-06T16:59:26.201Z,26.61
2023-05-06T17:02:01.539Z,26.58
2023-05-06T17:04:36.779Z,28.68
2023-05-06T17:07:13.774Z,25.66
2023-05-06T17:09:51.242Z,25.70
2023-05-06T17:12:23.977Z,22.89
2023-05-06T17:14:56.316Z,21.84
2023-05-06T17:17:29.117Z,22.02
2023-05-06T17:20:05.459Z,20.53
2023-05-06T17:22:42.849Z,19.94
2023-05-06T17:25:16.435Z,20.49
2023-05-06T17:27:49.222Z,21.44
2023-05-06T17:30:23.527Z,19.82
2023-05-06T17:32:59.006Z,19.71
2023-05-06T17:35:34.024Z,20.89
2023-05-06T17:38:06.181Z,21.93
2023-05-06T17:40:38.420Z,20.72
2023-05-06T17:43:10.736Z,21.50
2023-05-06T17:45:44.714Z,21.51
2023-05-06T17:48:16.914Z,23.80
2023-05-06T17:50:51.663Z,22.61
2023-05-06T17:53:26.184Z,21.21
2023-05-06T17:55:58.637Z,23.48
2023-05-06T17:58:30.936Z,23.88
2023-05-06T18:01:03.261Z,25.16
2023-05-06T18:03:35.578Z,26.22
2023-05-06T18:06:10.932Z,29.64
2023-05-06T18:08:44.548Z,31.23
2023-05-06T18:11:16.803Z,32.17
2023-05-06T18:13:49.090Z,34.22
2023-05-06T18:16:21.584Z,33.79
2023-05-06T18:18:53.847Z,38.09
2023-05-06T18:21:28.683Z,44.42
2023-05-06T18:24:10.308Z,48.11
2023-05-06T18:26:48.090Z,47.69
2023-05-06T18:29:20.295Z,52.01
2023-05-06T18:31:52.552Z,51.52
2023-05-06T18:34:24.723Z,54.21
2023-05-06T18:37:00.202Z,58.28
2023-05-06T18:39:32.442Z,58.55
2023-05-06T18:42:04.605Z,62.23
2023-05-06T18:44:37.009Z,59.74
2023-05-06T18:47:09.660Z,63.85
2023-05-06T18:49:41.859Z,67.09
2023-05-06T18:52:17.903Z,66.64
2023-05-06T18:54:51.476Z,68.50
2023-05-06T18:57:24.156Z,70.01
2023-05-06T18:59:56.546Z,72.56
2023-05-06T19:02:28.849Z,71.47
2023-05-06T19:05:01.504Z,74.07
2023-05-06T19:07:36.312Z,76.40
2023-05-06T19:10:09.298Z,78.52
2023-05-06T19:12:41.784Z,78.33
2023-05-06T19:15:15.177Z,80.52
2023-05-06T19:17:47.528Z,78.08
2023-05-06T19:20:20.038Z,79.44
2023-05-06T19:22:54.900Z,81.31
2023-05-06T19:25:27.356Z,81.74
2023-05-06T19:27:59.572Z,80.50
2023-05-06T19:30:36.230Z,80.09
2023-05-06T19:33:08.773Z,81.90
2023-05-06T19:35:42.026Z,81.44
2023-05-06T19:38:16.830Z,86.45
2023-05-06T19:40:49.069Z,86.89
2023-05-06T19:43:21.419Z,86.76
2023-05-06T19:45:54.000Z,87.72
2023-05-06T19:48:26.387Z,88.91
2023-05-06T19:50:58.652Z,90.08
2023-05-06T19:53:33.531Z,85.90
2023-05-06T19:56:13.416Z,85.81
2023-05-06T19:58:46.057Z,84.94
2023-05-06T20:01:22.654Z,86.89
2023-05-06T20:03:55.312Z,87.97
2023-05-06T20:06:29.660Z,91.61
2023-05-06T20:09:05.054Z,92.19
2023-05-06T20:11:37.375Z,92.81
2023-05-06T20:14:09.737Z,93.91
2023-05-06T20:16:42.085Z,94.93
2023-05-06T20:19:14.444Z,97.08
2023-05-06T20:21:46.745Z,101.84
2023-05-06T20:24:24.102Z,100.30
2023-05-06T20:26:58.178Z,106.08
2023-05-06T20:29:30.987Z,107.69
2023-05-06T20:32:03.452Z,113.56
2023-05-06T20:34:35.852Z,114.54
2023-05-06T20:37:08.312Z,110.56
2023-05-06T20:39:43.883Z,111.56
2023-05-06T20:42:16.127Z,107.71
2023-05-06T20:44:48.387Z,110.39
2023-05-06T20:47:20.700Z,117.87
2023-05-06T20:49:53.050Z,119.09
2023-05-06T20:52:25.823Z,118.02
2023-05-06T20:55:01.203Z,119.01
2023-05-06T20:57:33.484Z,113.70
2023-05-06T21:00:08.090Z,110.49
2023-05-06T21:02:41.864Z,104.84
2023-05-06T21:05:14.940Z,105.79
2023-05-06T21:07:47.326Z,104.31
2023-05-06T21:10:22.453Z,98.96
2023-05-06T21:12:55.292Z,100.46
2023-05-06T21:15:27.748Z,99.11
2023-05-06T21:18:00.075Z,94.47
2023-05-06T21:20:32.536Z,97.24
2023-05-06T21:23:05.219Z,95.75
2023-05-06T21:25:40.353Z,93.34
2023-05-06T21:28:13.841Z,98.79
2023-05-06T21:30:46.186Z,94.32
2023-05-06T21:33:19.637Z,95.87
2023-05-06T21:35:51.973Z,95.74
2023-05-06T21:38:24.257Z,97.64
2023-05-06T21:40:59.150Z,97.53
2023-05-06T21:43:33.343Z,92.81
2023-05-06T21:46:07.359Z,92.71
2023-05-06T21:48:39.632Z,91.96
2023-05-06T21:51:11.862Z,91.77
2023-05-06T21:53:44.091Z,94.13
2023-05-06T21:56:19.059Z,93.76
2023-05-06T21:58:51.388Z,90.20
2023-05-06T22:01:23.635Z,93.46
2023-05-06T22:03:56.516Z,93.51
2023-05-06T22:06:29.278Z,93.83
2023-05-06T22:09:01.564Z,90.61
2023-05-06T22:11:36.341Z,89.34
2023-05-06T22:14:08.769Z,89.55
2023-05-06T22:16:41.692Z,91.55
2023-05-06T22:19:14.299Z,95.26
2023-05-06T22:21:46.606Z,90.15
2023-05-06T22:24:18.840Z,91.48
2023-05-06T22:26:53.714Z,89.59
2023-05-06T22:29:26.030Z,92.41
2023-05-06T22:31:58.362Z,93.76
2023-05-06T22:34:30.678Z,91.25
2023-05-06T22:37:03.198Z,97.15
2023-05-06T22:39:35.474Z,95.13
2023-05-06T22:42:10.677Z,94.06
2023-05-06T22:44:42.897Z,95.02
2023-05-06T22:47:16.575Z,95.82
2023-05-06T22:49:48.835Z,94.06
2023-05-06T22:52:21.079Z,97.07
2023-05-06T22:54:53.366Z,97.15
2023-05-06T22:57:28.247Z,95.39
2023-05-06T23:00:00.520Z,90.16
2023-05-06T23:02:33.126Z,97.09
2023-05-06T23:05:05.495Z,101.76
2023-05-06T23:07:37.695Z,100.59
2023-05-06T23:10:11.653Z,104.26
2023-05-06T23:12:46.515Z,101.96
2023-05-06T23:15:18.835Z,105.94
2023-05-06T23:17:51.062Z,103.88
2023-05-06T23:20:23.360Z,103.92
2023-05-06T23:22:55.717Z,100.51
2023-05-06T23:25:28.201Z,95.44
2023-05-06T23:28:03.021Z,100.54
2023-05-06T23:30:35.687Z,98.94
2023-05-06T23:33:08.019Z,95.84
2023-05-06T23:35:40.302Z,93.04
2023-05-06T23:38:12.579Z,91.09
2023-05-06T23:40:44.956Z,89.50
2023-05-06T23:43:19.790Z,92.29
2023-05-06T23:45:52.216Z,92.13
2023-05-06T23:48:24.362Z,93.78
2023-05-06T23:50:56.632Z,98.72
2023-05-06T23:53:28.888Z,94.63
2023-05-06T23:56:01.416Z,95.09
2023-05-06T23:58:36.204Z,95.14
